sensor_id;sensor_type;location;lat;lon;timestamp;pressure;altitude;pressure_sealevel;temperature;humidity
15308;BME280;7755;52.208;6.964;2023-05-06T00:02:54;101295.66;;;10.83;100.00
15308;BME280;7755;52.208;6.964;2023-05-06T00:06:57;101299.00;;;10.85;100.00
15308;BME280;7755;52.208;6.964;2023-05-06T00:11:01;101295.47;;;10.85;100.00
15308;BME280;7755;52.208;6.964;2023-05-06T00:15:04;101292.25;;;10.88;100.00
15308;BME280;7755;52.208;6.964;2023-05-06T00:19:08;101284.69;;;10.90;100.00
15308;BME280;7755;52.208;6.964;2023-05-06T00:23:10;101283.19;;;10.94;100.00
15308;BME280;7755;52.208;6.964;2023-05-06T00:27:14;101286.50;;;10.96;100.00
15308;BME280;7755;52.208;6.964;2023-05-06T00:31:17;101274.78;;;10.96;100.00
15308;BME280;7755;52.208;6.964;2023-05-06T00:35:23;101278.56;;;10.94;100.00
15308;BME280;7755;52.208;6.964;2023-05-06T00:39:26;101276.91;;;10.93;100.00
15308;BME280;7755;52.208;6.964;2023-05-06T00:43:30;101276.53;;;10.90;100.00
15308;BME280;7755;52.208;6.964;2023-05-06T00:47:33;101276.63;;;10.83;100.00
15308;BME280;7755;52.208;6.964;2023-05-06T00:51:36;101273.78;;;10.78;100.00
15308;BME280;7755;52.208;6.964;2023-05-06T00:55:40;101273.03;;;10.71;100.00
15308;BME280;7755;52.208;6.964;2023-05-06T00:59:44;101266.59;;;10.65;100.00
15308;BME280;7755;52.208;6.964;2023-05-06T01:03:46;101267.28;;;10.61;100.00
15308;BME280;7755;52.208;6.964;2023-05-06T01:07:56;101253.38;;;10.51;100.00
15308;BME280;7755;52.208;6.964;2023-05-06T01:12:06;101255.88;;;10.52;100.00
15308;BME280;7755;52.208;6.964;2023-05-06T01:16:12;101258.59;;;10.52;100.00
15308;BME280;7755;52.208;6.964;2023-05-06T01:20:16;101251.69;;;10.50;100.00
15308;BME280;7755;52.208;6.964;2023-05-06T01:24:33;101263.28;;;10.45;100.00
15308;BME280;7755;52.208;6.964;2023-05-06T01:28:36;101270.50;;;10.33;100.00
15308;BME280;7755;52.208;6.964;2023-05-06T01:32:45;101269.78;;;10.19;100.00
15308;BME280;7755;52.208;6.964;2023-05-06T01:36:57;101271.28;;;10.15;100.00
15308;BME280;7755;52.208;6.964;2023-05-06T01:41:05;101272.56;;;10.12;100.00
15308;BME280;7755;52.208;6.964;2023-05-06T01:45:10;101273.03;;;10.09;100.00
15308;BME280;7755;52.208;6.964;2023-05-06T01:49:15;101272.03;;;10.04;100.00
15308;BME280;7755;52.208;6.964;2023-05-06T01:53:18;101276.88;;;9.95;100.00
15308;BME280;7755;52.208;6.964;2023-05-06T01:57:22;101276.50;;;9.92;100.00
15308;BME280;7755;52.208;6.964;2023-05-06T02:01:25;101275.09;;;9.89;100.00
15308;BME280;7755;52.208;6.964;2023-05-06T02:05:27;101271.44;;;9.95;100.00
15308;BME280;7755;52.208;6.964;2023-05-06T02:09:32;101279.00;;;9.93;100.00
15308;BME280;7755;52.208;6.964;2023-05-06T02:13:38;101274.63;;;9.92;100.00
15308;BME280;7755;52.208;6.964;2023-05-06T02:17:43;101282.78;;;9.92;100.00
15308;BME280;7755;52.208;6.964;2023-05-06T02:21:46;101282.19;;;9.90;100.00
15308;BME280;7755;52.208;6.964;2023-05-06T02:25:49;101280.56;;;9.82;100.00
15308;BME280;7755;52.208;6.964;2023-05-06T02:29:53;101295.47;;;9.73;100.00
15308;BME280;7755;52.208;6.964;2023-05-06T02:33:56;101287.59;;;9.65;100.00
15308;BME280;7755;52.208;6.964;2023-05-06T02:37:59;101289.47;;;9.65;100.00
15308;BME280;7755;52.208;6.964;2023-05-06T02:42:02;101273.19;;;9.65;100.00
15308;BME280;7755;52.208;6.964;2023-05-06T02:46:06;101285.88;;;9.71;100.00
15308;BME280;7755;52.208;6.964;2023-05-06T02:50:09;101282.09;;;9.72;100.00
15308;BME280;7755;52.208;6.964;2023-05-06T02:54:12;101271.00;;;9.73;100.00
15308;BME280;7755;52.208;6.964;2023-05-06T02:58:15;101267.25;;;9.74;100.00
15308;BME280;7755;52.208;6.964;2023-05-06T03:02:19;101270.13;;;9.79;100.00
15308;BME280;7755;52.208;6.964;2023-05-06T03:06:22;101275.13;;;9.82;100.00
15308;BME280;7755;52.208;6.964;2023-05-06T03:10:26;101294.75;;;9.84;100.00
15308;BME280;7755;52.208;6.964;2023-05-06T03:14:31;101296.47;;;9.79;100.00
15308;BME280;7755;52.208;6.964;2023-05-06T03:18:35;101283.34;;;9.76;100.00
15308;BME280;7755;52.208;6.964;2023-05-06T03:22:38;101282.06;;;9.78;100.00
15308;BME280;7755;52.208;6.964;2023-05-06T03:26:42;101264.97;;;9.71;100.00
15308;BME280;7755;52.208;6.964;2023-05-06T03:30:47;101271.47;;;9.70;100.00
15308;BME280;7755;52.208;6.964;2023-05-06T03:34:51;101268.06;;;9.75;100.00
15308;BME280;7755;52.208;6.964;2023-05-06T03:38:55;101266.81;;;9.77;100.00
15308;BME280;7755;52.208;6.964;2023-05-06T03:42:58;101264.53;;;9.74;100.00
15308;BME280;7755;52.208;6.964;2023-05-06T03:47:01;101258.72;;;9.71;100.00
15308;BME280;7755;52.208;6.964;2023-05-06T03:51:07;101262.28;;;9.71;100.00
15308;BME280;7755;52.208;6.964;2023-05-06T03:55:10;101267.47;;;9.73;100.00
15308;BME280;7755;52.208;6.964;2023-05-06T03:59:13;101269.34;;;9.72;100.00
15308;BME280;7755;52.208;6.964;2023-05-06T04:03:17;101271.47;;;9.70;100.00
15308;BME280;7755;52.208;6.964;2023-05-06T04:07:25;101279.63;;;9.70;100.00
15308;BME280;7755;52.208;6.964;2023-05-06T04:11:28;101280.00;;;9.74;100.00
15308;BME280;7755;52.208;6.964;2023-05-06T04:15:33;101276.03;;;9.76;100.00
15308;BME280;7755;52.208;6.964;2023-05-06T04:19:45;101268.47;;;9.78;100.00
15308;BME280;7755;52.208;6.964;2023-05-06T04:23:59;101274.09;;;9.83;100.00
15308;BME280;7755;52.208;6.964;2023-05-06T04:28:08;101283.22;;;9.89;100.00
15308;BME280;7755;52.208;6.964;2023-05-06T04:32:11;101285.31;;;9.87;100.00
15308;BME280;7755;52.208;6.964;2023-05-06T04:36:14;101290.16;;;9.85;100.00
15308;BME280;7755;52.208;6.964;2023-05-06T04:40:29;101282.59;;;9.87;100.00
15308;BME280;7755;52.208;6.964;2023-05-06T04:44:32;101280.78;;;9.81;100.00
15308;BME280;7755;52.208;6.964;2023-05-06T04:48:37;101283.22;;;9.89;100.00
15308;BME280;7755;52.208;6.964;2023-05-06T04:52:41;101293.59;;;9.99;100.00
15308;BME280;7755;52.208;6.964;2023-05-06T04:56:46;101279.53;;;10.02;100.00
15308;BME280;7755;52.208;6.964;2023-05-06T05:00:51;101287.03;;;10.06;100.00
15308;BME280;7755;52.208;6.964;2023-05-06T05:04:55;101304.72;;;10.16;100.00
15308;BME280;7755;52.208;6.964;2023-05-06T05:08:58;101306.53;;;10.22;100.00
15308;BME280;7755;52.208;6.964;2023-05-06T05:13:03;101304.63;;;10.29;100.00
15308;BME280;7755;52.208;6.964;2023-05-06T05:17:07;101310.63;;;10.37;100.00
15308;BME280;7755;52.208;6.964;2023-05-06T05:21:11;101302.75;;;10.48;100.00
15308;BME280;7755;52.208;6.964;2023-05-06T05:25:15;101297.41;;;10.59;100.00
15308;BME280;7755;52.208;6.964;2023-05-06T05:29:20;101300.66;;;10.68;100.00
15308;BME280;7755;52.208;6.964;2023-05-06T05:33:22;101300.97;;;10.78;100.00
15308;BME280;7755;52.208;6.964;2023-05-06T05:37:25;101297.47;;;10.89;100.00
15308;BME280;7755;52.208;6.964;2023-05-06T05:41:29;101296.56;;;10.96;100.00
15308;BME280;7755;52.208;6.964;2023-05-06T05:45:34;101295.81;;;11.07;100.00
15308;BME280;7755;52.208;6.964;2023-05-06T05:49:37;101305.69;;;11.19;100.00
15308;BME280;7755;52.208;6.964;2023-05-06T05:53:40;101312.59;;;11.34;100.00
15308;BME280;7755;52.208;6.964;2023-05-06T05:57:43;101314.56;;;11.45;100.00
15308;BME280;7755;52.208;6.964;2023-05-06T06:01:48;101316.84;;;11.60;100.00
15308;BME280;7755;52.208;6.964;2023-05-06T06:05:53;101321.63;;;11.76;100.00
15308;BME280;7755;52.208;6.964;2023-05-06T06:09:58;101316.25;;;11.99;100.00
15308;BME280;7755;52.208;6.964;2023-05-06T06:14:01;101314.97;;;12.37;100.00
15308;BME280;7755;52.208;6.964;2023-05-06T06:18:06;101327.97;;;12.82;100.00
15308;BME280;7755;52.208;6.964;2023-05-06T06:22:11;101323.97;;;13.25;100.00
15308;BME280;7755;52.208;6.964;2023-05-06T06:26:14;101329.63;;;13.63;100.00
15308;BME280;7755;52.208;6.964;2023-05-06T06:30:16;101325.03;;;13.98;100.00
15308;BME280;7755;52.208;6.964;2023-05-06T06:34:21;101324.84;;;14.38;100.00
15308;BME280;7755;52.208;6.964;2023-05-06T06:38:24;101327.59;;;14.77;100.00
15308;BME280;7755;52.208;6.964;2023-05-06T06:42:26;101329.22;;;15.16;100.00
15308;BME280;7755;52.208;6.964;2023-05-06T06:46:41;101333.56;;;15.61;100.00
15308;BME280;7755;52.208;6.964;2023-05-06T06:50:45;101342.94;;;15.92;100.00
15308;BME280;7755;52.208;6.964;2023-05-06T06:54:48;101338.47;;;16.13;100.00
15308;BME280;7755;52.208;6.964;2023-05-06T06:58:51;101333.06;;;16.28;100.00
15308;BME280;7755;52.208;6.964;2023-05-06T07:02:54;101336.84;;;16.54;100.00
15308;BME280;7755;52.208;6.964;2023-05-06T07:07:01;101331.22;;;16.76;100.00
15308;BME280;7755;52.208;6.964;2023-05-06T07:11:03;101332.13;;;16.92;100.00
15308;BME280;7755;52.208;6.964;2023-05-06T07:15:07;101346.16;;;16.96;100.00
15308;BME280;7755;52.208;6.964;2023-05-06T07:19:10;101343.22;;;17.17;100.00
15308;BME280;7755;52.208;6.964;2023-05-06T07:23:14;101349.84;;;17.22;100.00
15308;BME280;7755;52.208;6.964;2023-05-06T07:27:22;101344.34;;;17.27;100.00
15308;BME280;7755;52.208;6.964;2023-05-06T07:31:25;101344.97;;;17.49;100.00
15308;BME280;7755;52.208;6.964;2023-05-06T07:35:28;101346.44;;;17.77;100.00
15308;BME280;7755;52.208;6.964;2023-05-06T07:39:32;101350.56;;;17.95;100.00
15308;BME280;7755;52.208;6.964;2023-05-06T07:43:35;101345.94;;;18.16;100.00
15308;BME280;7755;52.208;6.964;2023-05-06T07:47:37;101341.78;;;18.44;100.00
15308;BME280;7755;52.208;6.964;2023-05-06T07:51:41;101351.09;;;18.78;100.00
15308;BME280;7755;52.208;6.964;2023-05-06T07:55:45;101346.63;;;18.98;97.24
15308;BME280;7755;52.208;6.964;2023-05-06T07:59:49;101343.47;;;19.25;95.78
15308;BME280;7755;52.208;6.964;2023-05-06T08:03:52;101350.16;;;19.68;94.60
15308;BME280;7755;52.208;6.964;2023-05-06T08:08:00;101353.78;;;20.03;91.80
15308;BME280;7755;52.208;6.964;2023-05-06T08:12:05;101355.50;;;20.28;88.95
15308;BME280;7755;52.208;6.964;2023-05-06T08:16:11;101357.00;;;20.49;87.67
15308;BME280;7755;52.208;6.964;2023-05-06T08:20:14;101361.19;;;20.70;86.73
15308;BME280;7755;52.208;6.964;2023-05-06T08:24:17;101364.38;;;20.83;86.58
15308;BME280;7755;52.208;6.964;2023-05-06T08:28:22;101357.44;;;20.85;84.52
15308;BME280;7755;52.208;6.964;2023-05-06T08:32:25;101352.56;;;20.77;85.70
15308;BME280;7755;52.208;6.964;2023-05-06T08:36:28;101364.72;;;20.76;85.66
15308;BME280;7755;52.208;6.964;2023-05-06T08:40:31;101366.41;;;20.48;84.59
15308;BME280;7755;52.208;6.964;2023-05-06T08:44:35;101364.63;;;20.28;84.69
15308;BME280;7755;52.208;6.964;2023-05-06T08:48:40;101362.78;;;20.53;85.28
15308;BME280;7755;52.208;6.964;2023-05-06T08:52:43;101356.97;;;21.02;83.94
15308;BME280;7755;52.208;6.964;2023-05-06T08:56:51;101359.38;;;21.33;81.07
15308;BME280;7755;52.208;6.964;2023-05-06T09:00:56;101364.31;;;21.12;81.37
15308;BME280;7755;52.208;6.964;2023-05-06T09:04:59;101351.03;;;21.38;79.94
15308;BME280;7755;52.208;6.964;2023-05-06T09:09:02;101356.63;;;21.51;76.36
15308;BME280;7755;52.208;6.964;2023-05-06T09:13:09;101360.53;;;21.88;79.13
15308;BME280;7755;52.208;6.964;2023-05-06T09:17:18;101358.25;;;22.28;75.49
15308;BME280;7755;52.208;6.964;2023-05-06T09:21:34;101354.00;;;22.49;69.51
15308;BME280;7755;52.208;6.964;2023-05-06T09:25:37;101354.81;;;22.50;71.39
15308;BME280;7755;52.208;6.964;2023-05-06T09:29:58;101355.56;;;22.69;72.63
15308;BME280;7755;52.208;6.964;2023-05-06T09:34:03;101356.81;;;22.63;71.11
15308;BME280;7755;52.208;6.964;2023-05-06T09:38:06;101357.78;;;22.53;70.88
15308;BME280;7755;52.208;6.964;2023-05-06T09:42:09;101348.75;;;22.48;71.47
15308;BME280;7755;52.208;6.964;2023-05-06T09:46:12;101348.91;;;22.24;72.24
15308;BME280;7755;52.208;6.964;2023-05-06T09:50:16;101329.00;;;22.22;72.21
15308;BME280;7755;52.208;6.964;2023-05-06T09:54:19;101339.97;;;22.27;71.09
15308;BME280;7755;52.208;6.964;2023-05-06T09:58:22;101333.69;;;22.21;71.30
15308;BME280;7755;52.208;6.964;2023-05-06T10:02:26;101336.31;;;22.31;71.67
15308;BME280;7755;52.208;6.964;2023-05-06T10:06:31;101331.94;;;22.44;70.61
15308;BME280;7755;52.208;6.964;2023-05-06T10:10:36;101323.00;;;22.61;69.64
15308;BME280;7755;52.208;6.964;2023-05-06T10:14:39;101329.78;;;22.69;68.99
15308;BME280;7755;52.208;6.964;2023-05-06T10:18:43;101314.00;;;22.83;66.21
15308;BME280;7755;52.208;6.964;2023-05-06T10:23:00;101313.69;;;22.71;65.55
15308;BME280;7755;52.208;6.964;2023-05-06T10:27:05;101307.91;;;22.67;66.58
15308;BME280;7755;52.208;6.964;2023-05-06T10:31:10;101310.69;;;22.67;67.01
15308;BME280;7755;52.208;6.964;2023-05-06T10:35:19;101307.41;;;22.51;66.28
15308;BME280;7755;52.208;6.964;2023-05-06T10:39:25;101308.63;;;22.45;67.59
15308;BME280;7755;52.208;6.964;2023-05-06T10:43:30;101311.78;;;22.39;67.43
15308;BME280;7755;52.208;6.964;2023-05-06T10:52:13;101295.53;;;22.18;65.97
15308;BME280;7755;52.208;6.964;2023-05-06T10:56:18;101295.22;;;22.20;66.06
15308;BME280;7755;52.208;6.964;2023-05-06T11:00:22;101289.31;;;22.07;65.12
15308;BME280;7755;52.208;6.964;2023-05-06T11:04:25;101291.44;;;21.97;66.65
15308;BME280;7755;52.208;6.964;2023-05-06T11:08:30;101298.13;;;21.96;66.28
15308;BME280;7755;52.208;6.964;2023-05-06T11:12:47;101286.59;;;21.89;66.13
15308;BME280;7755;52.208;6.964;2023-05-06T11:16:52;101292.59;;;21.77;64.87
15308;BME280;7755;52.208;6.964;2023-05-06T11:21:35;101296.28;;;21.72;65.05
15308;BME280;7755;52.208;6.964;2023-05-06T11:25:38;101301.06;;;21.67;65.83
15308;BME280;7755;52.208;6.964;2023-05-06T11:29:43;101292.47;;;21.68;64.51
15308;BME280;7755;52.208;6.964;2023-05-06T11:33:48;101286.84;;;21.73;64.08
15308;BME280;7755;52.208;6.964;2023-05-06T11:37:52;101298.78;;;21.88;63.37
15308;BME280;7755;52.208;6.964;2023-05-06T11:41:59;101291.28;;;21.74;61.76
15308;BME280;7755;52.208;6.964;2023-05-06T11:46:04;101292.22;;;21.84;63.60
15308;BME280;7755;52.208;6.964;2023-05-06T11:50:08;101293.19;;;21.74;63.67
15308;BME280;7755;52.208;6.964;2023-05-06T11:54:11;101286.72;;;21.65;64.10
15308;BME280;7755;52.208;6.964;2023-05-06T11:58:17;101287.53;;;21.65;64.45
15308;BME280;7755;52.208;6.964;2023-05-06T12:02:21;101278.63;;;21.68;64.56
15308;BME280;7755;52.208;6.964;2023-05-06T12:06:34;101275.16;;;21.95;64.88
15308;BME280;7755;52.208;6.964;2023-05-06T12:10:38;101282.19;;;22.20;61.71
15308;BME280;7755;52.208;6.964;2023-05-06T12:14:42;101272.28;;;22.47;62.52
15308;BME280;7755;52.208;6.964;2023-05-06T12:18:47;101275.19;;;22.83;60.19
15308;BME280;7755;52.208;6.964;2023-05-06T12:23:04;101283.16;;;23.26;59.09
15308;BME280;7755;52.208;6.964;2023-05-06T12:27:06;101279.47;;;23.53;58.06
15308;BME280;7755;52.208;6.964;2023-05-06T12:31:19;101268.03;;;23.68;56.73
15308;BME280;7755;52.208;6.964;2023-05-06T12:35:27;101275.63;;;23.99;55.68
15308;BME280;7755;52.208;6.964;2023-05-06T12:39:33;101261.34;;;24.22;55.78
15308;BME280;7755;52.208;6.964;2023-05-06T12:43:36;101262.31;;;24.49;53.83
15308;BME280;7755;52.208;6.964;2023-05-06T12:47:39;101270.34;;;24.19;52.14
15308;BME280;7755;52.208;6.964;2023-05-06T12:52:08;101263.53;;;24.03;52.55
15308;BME280;7755;52.208;6.964;2023-05-06T12:56:11;101250.28;;;24.00;52.81
15308;BME280;7755;52.208;6.964;2023-05-06T13:00:15;101259.81;;;24.08;52.42
15308;BME280;7755;52.208;6.964;2023-05-06T13:04:17;101259.44;;;24.01;53.63
15308;BME280;7755;52.208;6.964;2023-05-06T13:08:22;101248.38;;;24.09;52.76
15308;BME280;7755;52.208;6.964;2023-05-06T13:12:24;101242.03;;;23.86;52.17
15308;BME280;7755;52.208;6.964;2023-05-06T13:16:28;101256.25;;;23.85;52.37
15308;BME280;7755;52.208;6.964;2023-05-06T13:20:31;101253.00;;;24.22;52.11
15308;BME280;7755;52.208;6.964;2023-05-06T13:24:35;101250.38;;;24.40;51.27
15308;BME280;7755;52.208;6.964;2023-05-06T13:28:38;101244.94;;;24.35;51.42
15308;BME280;7755;52.208;6.964;2023-05-06T13:32:41;101246.91;;;24.34;50.45
15308;BME280;7755;52.208;6.964;2023-05-06T13:36:44;101241.22;;;24.39;49.70
15308;BME280;7755;52.208;6.964;2023-05-06T13:40:51;101234.19;;;24.50;48.57
15308;BME280;7755;52.208;6.964;2023-05-06T13:44:54;101230.13;;;24.48;47.52
15308;BME280;7755;52.208;6.964;2023-05-06T13:48:57;101232.94;;;24.26;49.30
15308;BME280;7755;52.208;6.964;2023-05-06T13:53:00;101232.59;;;24.18;48.91
15308;BME280;7755;52.208;6.964;2023-05-06T13:57:04;101228.38;;;24.30;49.28
15308;BME280;7755;52.208;6.964;2023-05-06T14:01:06;101226.50;;;24.47;48.05
15308;BME280;7755;52.208;6.964;2023-05-06T14:05:09;101220.97;;;24.56;48.01
15308;BME280;7755;52.208;6.964;2023-05-06T14:09:12;101224.44;;;24.70;47.57
15308;BME280;7755;52.208;6.964;2023-05-06T14:13:16;101222.13;;;24.55;44.63
15308;BME280;7755;52.208;6.964;2023-05-06T14:17:19;101213.03;;;24.32;46.60
15308;BME280;7755;52.208;6.964;2023-05-06T14:21:22;101211.16;;;24.19;46.91
15308;BME280;7755;52.208;6.964;2023-05-06T14:25:24;101205.97;;;24.26;46.39
15308;BME280;7755;52.208;6.964;2023-05-06T14:29:30;101205.41;;;24.46;46.25
15308;BME280;7755;52.208;6.964;2023-05-06T14:33:32;101198.22;;;24.45;45.13
15308;BME280;7755;52.208;6.964;2023-05-06T14:37:35;101194.78;;;24.48;46.25
15308;BME280;7755;52.208;6.964;2023-05-06T14:41:38;101194.13;;;24.51;45.49
15308;BME280;7755;52.208;6.964;2023-05-06T14:45:43;101216.84;;;24.45;45.96
15308;BME280;7755;52.208;6.964;2023-05-06T14:49:47;101211.09;;;24.10;47.94
15308;BME280;7755;52.208;6.964;2023-05-06T14:54:00;101212.66;;;23.49;49.36
15308;BME280;7755;52.208;6.964;2023-05-06T14:58:04;101205.69;;;23.15;50.02
15308;BME280;7755;52.208;6.964;2023-05-06T15:02:17;101195.88;;;22.82;51.06
15308;BME280;7755;52.208;6.964;2023-05-06T15:06:26;101197.38;;;22.38;53.52
15308;BME280;7755;52.208;6.964;2023-05-06T15:10:29;101205.56;;;22.16;53.46
15308;BME280;7755;52.208;6.964;2023-05-06T15:18:36;101209.22;;;21.65;56.82
15308;BME280;7755;52.208;6.964;2023-05-06T15:22:42;101215.97;;;21.40;57.64
15308;BME280;7755;52.208;6.964;2023-05-06T15:26:45;101218.03;;;21.34;59.12
15308;BME280;7755;52.208;6.964;2023-05-06T15:30:49;101204.38;;;21.19;59.76
15308;BME280;7755;52.208;6.964;2023-05-06T15:34:54;101196.31;;;21.22;60.76
15308;BME280;7755;52.208;6.964;2023-05-06T15:38:58;101203.19;;;21.25;61.93
15308;BME280;7755;52.208;6.964;2023-05-06T15:43:03;101209.41;;;21.36;62.70
15308;BME280;7755;52.208;6.964;2023-05-06T15:47:24;101206.03;;;21.39;63.82
15308;BME280;7755;52.208;6.964;2023-05-06T15:51:39;101212.28;;;21.25;64.03
15308;BME280;7755;52.208;6.964;2023-05-06T15:55:42;101208.97;;;21.29;64.84
15308;BME280;7755;52.208;6.964;2023-05-06T15:59:57;101212.78;;;21.33;65.06
15308;BME280;7755;52.208;6.964;2023-05-06T16:04:01;101207.16;;;21.38;64.58
15308;BME280;7755;52.208;6.964;2023-05-06T16:08:06;101212.50;;;21.34;65.04
15308;BME280;7755;52.208;6.964;2023-05-06T16:12:09;101215.53;;;21.33;64.85
15308;BME280;7755;52.208;6.964;2023-05-06T16:16:12;101211.44;;;21.30;64.38
15308;BME280;7755;52.208;6.964;2023-05-06T16:20:15;101206.41;;;21.32;64.04
15308;BME280;7755;52.208;6.964;2023-05-06T16:24:19;101207.88;;;21.24;64.02
15308;BME280;7755;52.208;6.964;2023-05-06T16:28:22;101204.09;;;21.20;64.01
15308;BME280;7755;52.208;6.964;2023-05-06T16:32:28;101204.53;;;21.09;64.63
15308;BME280;7755;52.208;6.964;2023-05-06T16:36:31;101198.50;;;21.07;64.72
15308;BME280;7755;52.208;6.964;2023-05-06T16:40:41;101202.97;;;21.03;65.22
15308;BME280;7755;52.208;6.964;2023-05-06T16:44:44;101199.97;;;20.99;65.52
15308;BME280;7755;52.208;6.964;2023-05-06T16:48:47;101183.31;;;21.04;66.11
15308;BME280;7755;52.208;6.964;2023-05-06T16:52:50;101191.47;;;20.95;66.34
15308;BME280;7755;52.208;6.964;2023-05-06T16:56:54;101184.34;;;20.89;66.76
15308;BME280;7755;52.208;6.964;2023-05-06T17:00:57;101193.25;;;20.86;67.55
15308;BME280;7755;52.208;6.964;2023-05-06T17:05:00;101198.78;;;20.86;67.83
15308;BME280;7755;52.208;6.964;2023-05-06T17:09:03;101190.56;;;20.81;68.01
15308;BME280;7755;52.208;6.964;2023-05-06T17:13:08;101188.09;;;20.80;68.23
15308;BME280;7755;52.208;6.964;2023-05-06T17:17:11;101189.50;;;20.77;68.63
15308;BME280;7755;52.208;6.964;2023-05-06T17:21:14;101193.50;;;20.66;69.41
15308;BME280;7755;52.208;6.964;2023-05-06T17:25:19;101193.22;;;20.67;69.65
15308;BME280;7755;52.208;6.964;2023-05-06T17:29:26;101190.53;;;20.62;70.06
15308;BME280;7755;52.208;6.964;2023-05-06T17:33:28;101193.94;;;20.54;70.99
15308;BME280;7755;52.208;6.964;2023-05-06T17:37:32;101192.88;;;20.50;71.29
15308;BME280;7755;52.208;6.964;2023-05-06T17:41:36;101190.72;;;20.47;72.15
15308;BME280;7755;52.208;6.964;2023-05-06T17:45:42;101188.34;;;20.35;73.03
15308;BME280;7755;52.208;6.964;2023-05-06T17:49:44;101192.28;;;20.29;73.63
15308;BME280;7755;52.208;6.964;2023-05-06T17:53:47;101192.41;;;20.19;74.62
15308;BME280;7755;52.208;6.964;2023-05-06T17:57:50;101195.22;;;20.14;75.14
15308;BME280;7755;52.208;6.964;2023-05-06T18:01:55;101198.84;;;20.09;75.79
15308;BME280;7755;52.208;6.964;2023-05-06T18:05:59;101188.91;;;20.08;76.36
15308;BME280;7755;52.208;6.964;2023-05-06T18:10:05;101184.91;;;19.96;77.52
15308;BME280;7755;52.208;6.964;2023-05-06T18:14:10;101185.53;;;19.87;78.06
15308;BME280;7755;52.208;6.964;2023-05-06T18:18:16;101195.75;;;19.87;78.29
15308;BME280;7755;52.208;6.964;2023-05-06T18:22:21;101199.09;;;19.84;78.50
15308;BME280;7755;52.208;6.964;2023-05-06T18:26:24;101201.91;;;19.79;78.89
15308;BME280;7755;52.208;6.964;2023-05-06T18:30:48;101200.06;;;19.69;79.71
15308;BME280;7755;52.208;6.964;2023-05-06T18:34:58;101197.94;;;19.61;79.93
15308;BME280;7755;52.208;6.964;2023-05-06T18:39:02;101207.03;;;19.56;79.85
15308;BME280;7755;52.208;6.964;2023-05-06T18:48:14;101203.25;;;19.47;80.60
15308;BME280;7755;52.208;6.964;2023-05-06T18:52:19;101205.50;;;19.40;80.31
15308;BME280;7755;52.208;6.964;2023-05-06T18:56:22;101211.91;;;19.30;81.05
15308;BME280;7755;52.208;6.964;2023-05-06T19:00:25;101217.78;;;19.24;81.20
15308;BME280;7755;52.208;6.964;2023-05-06T19:04:28;101223.03;;;19.15;81.35
15308;BME280;7755;52.208;6.964;2023-05-06T19:08:33;101261.19;;;18.98;83.32
15308;BME280;7755;52.208;6.964;2023-05-06T19:12:37;101250.84;;;18.64;87.63
15308;BME280;7755;52.208;6.964;2023-05-06T19:16:39;101258.63;;;18.32;91.28
15308;BME280;7755;52.208;6.964;2023-05-06T19:20:42;101282.63;;;18.11;93.80
15308;BME280;7755;52.208;6.964;2023-05-06T19:24:46;101288.41;;;18.04;98.40
15308;BME280;7755;52.208;6.964;2023-05-06T19:28:49;101296.63;;;17.68;100.00
15308;BME280;7755;52.208;6.964;2023-05-06T19:32:52;101295.44;;;17.29;100.00
15308;BME280;7755;52.208;6.964;2023-05-06T19:36:58;101295.03;;;16.89;100.00
15308;BME280;7755;52.208;6.964;2023-05-06T19:41:03;101294.34;;;16.67;100.00
15308;BME280;7755;52.208;6.964;2023-05-06T19:45:07;101297.03;;;16.57;100.00
15308;BME280;7755;52.208;6.964;2023-05-06T19:49:10;101306.56;;;16.44;100.00
15308;BME280;7755;52.208;6.964;2023-05-06T19:53:13;101309.25;;;16.34;100.00
15308;BME280;7755;52.208;6.964;2023-05-06T19:57:18;101312.50;;;16.26;100.00
15308;BME280;7755;52.208;6.964;2023-05-06T20:01:20;101301.50;;;16.26;100.00
15308;BME280;7755;52.208;6.964;2023-05-06T20:05:25;101302.34;;;16.26;100.00
15308;BME280;7755;52.208;6.964;2023-05-06T20:09:30;101300.88;;;16.19;100.00
15308;BME280;7755;52.208;6.964;2023-05-06T20:13:34;101300.81;;;16.08;100.00
15308;BME280;7755;52.208;6.964;2023-05-06T20:17:37;101296.09;;;15.99;100.00
15308;BME280;7755;52.208;6.964;2023-05-06T20:21:40;101294.97;;;15.95;100.00
15308;BME280;7755;52.208;6.964;2023-05-06T20:25:43;101292.28;;;16.05;100.00
15308;BME280;7755;52.208;6.964;2023-05-06T20:29:47;101300.50;;;16.00;100.00
15308;BME280;7755;52.208;6.964;2023-05-06T20:33:52;101297.16;;;15.93;100.00
15308;BME280;7755;52.208;6.964;2023-05-06T20:37:54;101298.03;;;16.03;100.00
15308;BME280;7755;52.208;6.964;2023-05-06T20:41:57;101311.84;;;16.14;100.00
15308;BME280;7755;52.208;6.964;2023-05-06T20:46:02;101308.06;;;16.20;100.00
15308;BME280;7755;52.208;6.964;2023-05-06T20:50:05;101308.88;;;16.20;100.00
15308;BME280;7755;52.208;6.964;2023-05-06T20:54:08;101318.22;;;16.19;100.00
15308;BME280;7755;52.208;6.964;2023-05-06T20:58:11;101321.19;;;16.18;100.00
15308;BME280;7755;52.208;6.964;2023-05-06T21:02:15;101316.50;;;16.13;100.00
15308;BME280;7755;52.208;6.964;2023-05-06T21:06:19;101322.22;;;16.11;100.00
15308;BME280;7755;52.208;6.964;2023-05-06T21:10:22;101312.09;;;16.12;100.00
15308;BME280;7755;52.208;6.964;2023-05-06T21:14:24;101315.97;;;16.16;100.00
15308;BME280;7755;52.208;6.964;2023-05-06T21:18:28;101315.41;;;16.14;100.00
15308;BME280;7755;52.208;6.964;2023-05-06T21:22:31;101323.38;;;16.16;100.00
15308;BME280;7755;52.208;6.964;2023-05-06T21:26:34;101316.53;;;16.18;100.00
15308;BME280;7755;52.208;6.964;2023-05-06T21:30:37;101317.94;;;16.21;100.00
15308;BME280;7755;52.208;6.964;2023-05-06T21:34:41;101318.75;;;16.21;100.00
15308;BME280;7755;52.208;6.964;2023-05-06T21:38:46;101321.50;;;16.21;100.00
15308;BME280;7755;52.208;6.964;2023-05-06T21:42:49;101316.84;;;16.22;100.00
15308;BME280;7755;52.208;6.964;2023-05-06T21:46:53;101320.94;;;16.19;100.00